createdAt,value
2023-05-04T00:02:05.511Z,3.23
2023-05-04T00:04:32.744Z,3.20
2023-05-04T00:06:59.831Z,3.27
2023-05-04T00:09:27.393Z,3.29
2023-05-04T00:11:54.176Z,3.16
2023-05-04T00:14:21.155Z,3.13
2023-05-04T00:16:48.133Z,3.13
2023-05-04T00:19:15.121Z,2.88
2023-05-04T00:21:42.006Z,2.99
2023-05-04T00:24:08.901Z,3.00
2023-05-04T00:26:36.289Z,3.03
2023-05-04T00:29:03.225Z,3.01
2023-05-04T00:31:30.283Z,3.12
2023-05-04T00:33:57.346Z,3.23
2023-05-04T00:36:24.267Z,3.07
2023-05-04T00:38:52.506Z,2.90
2023-05-04T00:41:21.118Z,2.88
2023-05-04T00:43:49.287Z,2.84
2023-05-04T00:46:16.491Z,2.83
2023-05-04T00:48:47.319Z,2.94
2023-05-04T00:51:15.955Z,2.79
2023-05-04T00:53:43.257Z,2.68
2023-05-04T00:56:11.362Z,2.67
2023-05-04T00:58:41.447Z,2.69
2023-05-04T01:01:08.688Z,2.63
2023-05-04T01:03:38.102Z,2.68
2023-05-04T01:07:00.353Z,2.69
2023-05-04T01:09:43.399Z,2.65
2023-05-04T01:12:23.162Z,2.85
2023-05-04T01:14:54.111Z,2.75
2023-05-04T01:17:21.013Z,2.87
2023-05-04T01:19:48.318Z,2.64
2023-05-04T01:22:15.330Z,2.57
2023-05-04T01:24:44.739Z,2.51
2023-05-04T01:27:26.648Z,2.47
2023-05-04T01:30:09.248Z,2.46
2023-05-04T01:32:37.977Z,2.58
2023-05-04T01:35:05.265Z,2.49
2023-05-04T01:37:32.381Z,2.40
2023-05-04T01:39:59.207Z,2.37
2023-05-04T01:42:26.094Z,2.38
2023-05-04T01:44:52.977Z,2.30
2023-05-04T01:47:19.923Z,2.23
2023-05-04T01:49:46.701Z,2.32
2023-05-04T01:52:13.766Z,2.30
2023-05-04T01:54:40.680Z,2.22
2023-05-04T01:57:07.776Z,2.15
2023-05-04T01:59:34.761Z,2.12
2023-05-04T02:02:04.364Z,2.21
2023-05-04T02:04:31.420Z,2.09
2023-05-04T02:06:58.332Z,2.00
2023-05-04T02:09:25.290Z,2.05
2023-05-04T02:11:52.186Z,1.96
2023-05-04T02:14:19.222Z,1.98
2023-05-04T02:16:46.118Z,2.01
2023-05-04T02:19:13.489Z,2.16
2023-05-04T02:21:42.403Z,1.90
2023-05-04T02:24:09.728Z,1.80
2023-05-04T02:26:36.667Z,1.92
2023-05-04T02:29:05.192Z,1.83
2023-05-04T02:31:33.757Z,1.78
2023-05-04T02:34:01.649Z,1.70
2023-05-04T02:36:28.971Z,1.79
2023-05-04T02:38:56.403Z,1.72
2023-05-04T02:41:25.335Z,1.64
2023-05-04T02:43:54.710Z,1.76
2023-05-04T02:46:21.713Z,1.61
2023-05-04T02:48:48.657Z,1.62
2023-05-04T02:51:15.605Z,1.56
2023-05-04T02:53:42.610Z,1.50
2023-05-04T02:56:09.662Z,1.56
2023-05-04T02:58:36.749Z,1.52
2023-05-04T03:01:04.016Z,1.57
2023-05-04T03:03:31.523Z,1.64
2023-05-04T03:05:58.745Z,1.50
2023-05-04T03:08:25.773Z,1.50
2023-05-04T03:10:52.738Z,1.41
2023-05-04T03:13:19.730Z,1.46
2023-05-04T03:15:46.542Z,1.58
2023-05-04T03:18:13.766Z,1.46
2023-05-04T03:20:41.387Z,1.43
2023-05-04T03:23:08.296Z,1.43
2023-05-04T03:25:35.342Z,1.47
2023-05-04T03:28:02.194Z,1.41
2023-05-04T03:30:29.078Z,1.38
2023-05-04T03:32:56.076Z,1.37
2023-05-04T03:35:24.900Z,1.34
2023-05-04T03:37:52.143Z,1.45
2023-05-04T03:40:23.227Z,1.44
2023-05-04T03:42:52.748Z,1.49
2023-05-04T03:45:19.979Z,1.43
2023-05-04T03:47:47.003Z,1.61
2023-05-04T03:50:14.123Z,1.71
2023-05-04T03:52:41.065Z,1.88
2023-05-04T03:55:08.464Z,1.86
2023-05-04T03:57:35.499Z,2.02
2023-05-04T04:00:02.875Z,2.12
2023-05-04T04:02:32.647Z,2.21
2023-05-04T04:04:59.905Z,2.28
2023-05-04T04:07:27.252Z,2.56
2023-05-04T04:09:54.512Z,2.80
2023-05-04T04:12:21.878Z,2.97
2023-05-04T04:14:52.161Z,3.28
2023-05-04T04:17:19.508Z,3.62
2023-05-04T04:19:46.368Z,3.83
2023-05-04T04:22:13.445Z,4.01
2023-05-04T04:24:40.612Z,4.28
2023-05-04T04:27:07.576Z,4.55
2023-05-04T04:29:35.823Z,4.55
2023-05-04T04:32:04.621Z,4.34
2023-05-04T04:34:32.232Z,4.64
2023-05-04T04:37:02.211Z,5.45
2023-05-04T04:39:29.290Z,6.30
2023-05-04T04:41:56.465Z,7.02
2023-05-04T04:44:23.462Z,7.03
2023-05-04T04:46:51.436Z,7.11
2023-05-04T04:49:18.589Z,7.25
2023-05-04T04:51:45.741Z,7.22
2023-05-04T04:54:12.710Z,7.30
2023-05-04T04:56:40.862Z,7.83
2023-05-04T04:59:08.048Z,8.12
2023-05-04T05:01:35.386Z,9.67
2023-05-04T05:04:02.524Z,10.63
2023-05-04T05:06:29.589Z,10.30
2023-05-04T05:08:56.618Z,9.67
2023-05-04T05:11:23.568Z,9.70
2023-05-04T05:13:50.846Z,9.25
2023-05-04T05:16:20.977Z,9.14
2023-05-04T05:18:48.235Z,9.27
2023-05-04T05:21:15.214Z,9.83
2023-05-04T05:23:42.221Z,10.86
2023-05-04T05:26:09.424Z,10.74
2023-05-04T05:28:37.361Z,10.88
2023-05-04T05:31:04.353Z,10.85
2023-05-04T05:33:31.707Z,11.07
2023-05-04T05:35:58.702Z,11.76
2023-05-04T05:38:27.076Z,13.41
2023-05-04T05:40:57.228Z,14.37
2023-05-04T05:43:24.194Z,14.62
2023-05-04T05:45:51.022Z,15.94
2023-05-04T05:48:17.888Z,17.56
2023-05-04T05:50:44.923Z,18.45
2023-05-04T05:53:12.485Z,18.51
2023-05-04T05:55:39.325Z,18.26
2023-05-04T05:58:08.765Z,17.73
2023-05-04T06:00:37.794Z,19.06
2023-05-04T06:03:04.927Z,19.29
2023-05-04T06:05:34.809Z,18.31
2023-05-04T06:08:01.720Z,17.93
2023-05-04T06:10:28.760Z,18.58
2023-05-04T06:12:55.936Z,18.36
2023-05-04T06:15:23.193Z,17.70
2023-05-04T06:17:50.282Z,17.57
2023-05-04T06:20:17.378Z,18.13
2023-05-04T06:22:44.214Z,19.00
2023-05-04T06:25:12.447Z,19.75
2023-05-04T06:27:39.628Z,19.09
2023-05-04T06:30:08.080Z,18.53
2023-05-04T06:32:35.607Z,19.41
2023-05-04T06:35:02.924Z,19.45
2023-05-04T06:37:29.888Z,18.45
2023-05-04T06:39:56.955Z,16.42
2023-05-04T06:42:29.252Z,16.55
2023-05-04T06:44:57.199Z,16.74
2023-05-04T06:47:24.177Z,16.88
2023-05-04T06:49:51.327Z,16.99
2023-05-04T06:52:21.941Z,17.70
2023-05-04T06:54:48.867Z,17.65
2023-05-04T06:57:15.893Z,17.74
2023-05-04T06:59:42.910Z,17.90
2023-05-04T07:02:10.125Z,17.56
2023-05-04T07:04:37.322Z,17.55
2023-05-04T07:07:04.390Z,18.16
2023-05-04T07:09:31.217Z,18.40
2023-05-04T07:11:58.114Z,18.10
2023-05-04T07:14:25.172Z,17.55
2023-05-04T07:16:52.542Z,17.40
2023-05-04T07:19:19.431Z,17.51
2023-05-04T07:21:47.507Z,17.28
2023-05-04T07:24:14.699Z,17.10
2023-05-04T07:26:44.504Z,17.20
2023-05-04T07:29:11.979Z,16.53
2023-05-04T07:31:39.007Z,17.77
2023-05-04T07:34:06.171Z,19.37
2023-05-04T07:36:36.465Z,18.40
2023-05-04T07:39:03.595Z,19.11
2023-05-04T07:41:30.939Z,18.60
2023-05-04T07:43:57.953Z,18.39
2023-05-04T07:46:24.805Z,19.01
2023-05-04T07:48:51.932Z,18.38
2023-05-04T07:51:18.765Z,18.97
2023-05-04T07:53:45.830Z,18.31
2023-05-04T07:56:13.571Z,18.65
2023-05-04T07:58:40.688Z,20.14
2023-05-04T08:01:07.813Z,20.06
2023-05-04T08:03:34.719Z,20.16
2023-05-04T08:06:02.244Z,20.51
2023-05-04T08:08:29.386Z,21.27
2023-05-04T08:11:07.985Z,22.04
2023-05-04T08:13:46.581Z,23.67
2023-05-04T08:16:14.032Z,21.93
2023-05-04T08:18:41.064Z,21.10
2023-05-04T08:21:08.188Z,19.60
2023-05-04T08:23:35.234Z,18.94
2023-05-04T08:26:05.601Z,18.58
2023-05-04T08:28:38.086Z,19.13
2023-05-04T08:31:05.325Z,19.27
2023-05-04T08:33:32.393Z,20.50
2023-05-04T08:35:59.796Z,22.20
2023-05-04T08:38:26.965Z,22.62
2023-05-04T08:40:55.026Z,22.80
2023-05-04T08:43:22.313Z,23.02
2023-05-04T08:45:50.751Z,24.19
2023-05-04T08:48:17.815Z,24.89
2023-05-04T08:50:46.156Z,25.49
2023-05-04T08:53:16.656Z,25.26
2023-05-04T08:55:49.694Z,25.41
2023-05-04T08:58:19.251Z,25.46
2023-05-04T09:00:46.778Z,27.06
2023-05-04T09:03:15.295Z,26.16
2023-05-04T09:05:46.616Z,26.04
2023-05-04T09:08:15.003Z,27.85
2023-05-04T09:10:42.087Z,28.46
2023-05-04T09:13:09.315Z,30.01
2023-05-04T09:15:36.612Z,28.59
2023-05-04T09:18:04.444Z,27.76
2023-05-04T09:20:42.933Z,26.35
2023-05-04T09:23:10.016Z,27.06
2023-05-04T09:25:51.486Z,28.84
2023-05-04T09:28:19.883Z,27.93
2023-05-04T09:30:49.230Z,26.34
2023-05-04T09:33:17.799Z,26.50
2023-05-04T09:35:45.818Z,25.23
2023-05-04T09:38:12.919Z,23.52
2023-05-04T09:40:42.417Z,25.21
2023-05-04T09:43:09.630Z,26.49
2023-05-04T09:45:47.128Z,25.09
2023-05-04T09:48:31.450Z,24.30
2023-05-04T09:51:02.655Z,23.72
2023-05-04T09:53:30.882Z,23.51
2023-05-04T09:56:09.124Z,24.66
2023-05-04T09:58:36.758Z,26.46
2023-05-04T10:01:04.148Z,27.81
2023-05-04T10:03:32.438Z,26.46
2023-05-04T10:06:04.771Z,25.45
2023-05-04T10:08:34.677Z,26.03
2023-05-04T10:11:02.122Z,25.58
2023-05-04T10:13:29.343Z,24.99
2023-05-04T10:16:05.167Z,26.20
2023-05-04T10:18:59.023Z,27.47
2023-05-04T10:21:33.690Z,28.71
2023-05-04T10:24:14.520Z,28.48
2023-05-04T10:26:55.350Z,31.12
2023-05-04T10:29:25.354Z,31.67
2023-05-04T10:31:53.642Z,30.87
2023-05-04T10:34:29.444Z,31.75
2023-05-04T10:36:57.524Z,31.18
2023-05-04T10:39:30.553Z,31.09
2023-05-04T10:42:03.859Z,31.68
2023-05-04T10:44:32.915Z,31.62
2023-05-04T10:47:07.999Z,28.82
2023-05-04T10:49:36.101Z,30.98
2023-05-04T10:52:16.274Z,31.58
2023-05-04T10:54:44.387Z,29.50
2023-05-04T10:57:14.723Z,27.92
2023-05-04T10:59:42.230Z,26.44
2023-05-04T11:02:09.542Z,28.16
2023-05-04T11:04:38.146Z,28.18
2023-05-04T11:07:08.953Z,30.73
2023-05-04T11:09:42.412Z,29.88
2023-05-04T11:12:12.931Z,27.64
2023-05-04T11:14:43.550Z,27.07
2023-05-04T11:19:51.845Z,29.62
2023-05-04T11:22:19.481Z,29.42
2023-05-04T11:24:48.969Z,26.74
2023-05-04T11:27:23.717Z,26.73
2023-05-04T11:29:58.087Z,26.39
2023-05-04T11:32:48.474Z,28.87
2023-05-04T11:35:25.385Z,29.15
2023-05-04T11:37:53.091Z,29.80
2023-05-04T11:40:23.147Z,28.61
2023-05-04T11:42:52.430Z,29.51
2023-05-04T11:45:23.141Z,29.07
2023-05-04T11:47:56.198Z,27.78
2023-05-04T11:50:24.970Z,28.15
2023-05-04T11:52:52.185Z,27.63
2023-05-04T11:55:30.837Z,28.61
2023-05-04T11:58:02.588Z,26.93
2023-05-04T12:00:40.541Z,26.89
2023-05-04T12:03:16.054Z,24.63
2023-05-04T12:06:02.754Z,24.11
2023-05-04T12:08:32.548Z,23.01
2023-05-04T12:11:13.753Z,23.15
2023-05-04T12:13:41.698Z,22.52
2023-05-04T12:16:19.391Z,22.27
2023-05-04T12:18:47.693Z,22.72
2023-05-04T12:21:19.420Z,22.12
2023-05-04T12:23:47.538Z,21.28
2023-05-04T12:26:17.397Z,21.54
2023-05-04T12:28:45.804Z,21.49
2023-05-04T12:31:13.071Z,21.20
2023-05-04T12:33:39.912Z,22.13
2023-05-04T12:36:07.395Z,21.22
2023-05-04T12:38:35.053Z,20.68
2023-05-04T12:41:05.018Z,20.58
2023-05-04T12:43:32.435Z,20.33
2023-05-04T12:46:00.406Z,20.34
2023-05-04T12:48:29.376Z,20.85
2023-05-04T12:50:56.285Z,20.92
2023-05-04T12:53:25.980Z,21.05
2023-05-04T12:55:53.018Z,20.71
2023-05-04T12:58:20.263Z,21.26
2023-05-04T13:00:47.326Z,20.34
2023-05-04T13:03:14.823Z,19.90
2023-05-04T13:05:41.888Z,20.48
2023-05-04T13:08:09.240Z,21.36
2023-05-04T13:10:36.299Z,20.52
2023-05-04T13:13:05.052Z,20.46
2023-05-04T13:15:33.226Z,19.62
2023-05-04T13:18:00.709Z,19.40
2023-05-04T13:20:27.759Z,19.58
2023-05-04T13:22:58.226Z,19.59
2023-05-04T13:25:25.972Z,19.98
2023-05-04T13:27:53.141Z,20.28
2023-05-04T13:30:21.821Z,19.96
2023-05-04T13:32:49.381Z,19.62
2023-05-04T13:35:17.661Z,19.70
2023-05-04T13:37:44.822Z,20.14
2023-05-04T13:40:12.602Z,20.14
2023-05-04T13:42:39.498Z,19.63
2023-05-04T13:45:07.506Z,19.26
2023-05-04T13:47:37.211Z,19.41
2023-05-04T13:50:04.685Z,19.47
2023-05-04T13:52:32.372Z,20.15
2023-05-04T13:54:59.738Z,19.35
2023-05-04T13:57:30.554Z,19.72
2023-05-04T14:00:07.131Z,20.19
2023-05-04T14:02:35.248Z,20.20
2023-05-04T14:05:04.320Z,19.71
2023-05-04T14:07:31.566Z,20.15
2023-05-04T14:09:59.708Z,19.95
2023-05-04T14:12:27.722Z,19.63
2023-05-04T14:14:54.786Z,19.50
2023-05-04T14:17:21.636Z,19.27
2023-05-04T14:19:48.695Z,19.11
2023-05-04T14:22:15.909Z,18.59
2023-05-04T14:24:43.026Z,18.84
2023-05-04T14:27:09.864Z,19.00
2023-05-04T14:29:36.776Z,19.34
2023-05-04T14:32:04.041Z,19.20
2023-05-04T14:34:30.753Z,19.55
2023-05-04T14:36:57.826Z,19.88
2023-05-04T14:39:25.123Z,19.69
2023-05-04T14:41:53.325Z,19.47
2023-05-04T14:44:22.876Z,19.53
2023-05-04T14:46:49.962Z,19.71
2023-05-04T14:49:34.773Z,19.75
2023-05-04T14:52:02.354Z,19.91
2023-05-04T14:54:29.321Z,19.87
2023-05-04T14:56:56.424Z,19.87
2023-05-04T14:59:23.437Z,19.30
2023-05-04T15:01:50.685Z,18.81
2023-05-04T15:04:17.798Z,18.51
2023-05-04T15:06:44.729Z,18.34
2023-05-04T15:09:11.794Z,18.42
2023-05-04T15:11:39.095Z,18.58
2023-05-04T15:14:05.944Z,18.52
2023-05-04T15:16:33.464Z,18.39
2023-05-04T15:19:00.764Z,17.77
2023-05-04T15:21:28.839Z,17.50
2023-05-04T15:23:55.664Z,17.25
2023-05-04T15:26:24.472Z,17.07
2023-05-04T15:28:53.987Z,17.11
2023-05-04T15:31:21.667Z,16.77
2023-05-04T15:33:49.059Z,17.07
2023-05-04T15:36:16.191Z,17.23
2023-05-04T15:38:43.893Z,17.02
2023-05-04T15:41:11.316Z,16.83
2023-05-04T15:43:38.107Z,16.72
2023-05-04T15:46:04.986Z,16.46
2023-05-04T15:48:32.172Z,16.57
2023-05-04T15:51:03.277Z,16.80
2023-05-04T15:53:30.364Z,16.41
2023-05-04T15:55:57.271Z,16.19
2023-05-04T15:58:26.673Z,16.14
2023-05-04T16:00:53.797Z,16.24
2023-05-04T16:03:22.566Z,16.19
2023-05-04T16:05:51.877Z,16.55
2023-05-04T16:08:20.010Z,16.27
2023-05-04T16:10:47.417Z,16.34
2023-05-04T16:13:14.928Z,16.10
2023-05-04T16:15:41.958Z,15.94
2023-05-04T16:18:09.251Z,15.75
2023-05-04T16:20:39.089Z,15.58
2023-05-04T16:23:06.227Z,15.48
2023-05-04T16:25:33.868Z,15.52
2023-05-04T16:28:00.975Z,15.13
2023-05-04T16:30:32.391Z,15.22
2023-05-04T16:32:59.490Z,15.58
2023-05-04T16:35:26.848Z,15.48
2023-05-04T16:37:56.977Z,15.26
2023-05-04T16:40:24.252Z,15.18
2023-05-04T16:42:51.285Z,14.61
2023-05-04T16:45:18.997Z,14.54
2023-05-04T16:47:46.388Z,14.45
2023-05-04T16:50:14.315Z,14.28
2023-05-04T16:52:41.631Z,14.32
2023-05-04T16:55:11.873Z,14.21
2023-05-04T16:57:39.461Z,14.23
2023-05-04T17:00:09.431Z,14.36
2023-05-04T17:02:39.258Z,14.37
2023-05-04T17:05:10.764Z,14.24
2023-05-04T17:07:39.923Z,14.14
2023-05-04T17:10:08.640Z,14.05
2023-05-04T17:12:36.305Z,13.92
2023-05-04T17:15:04.455Z,14.25
2023-05-04T17:17:31.436Z,14.03
2023-05-04T17:19:58.527Z,13.74
2023-05-04T17:22:25.595Z,13.53
2023-05-04T17:24:52.877Z,13.38
2023-05-04T17:27:22.544Z,13.57
2023-05-04T17:29:49.550Z,13.28
2023-05-04T17:32:16.842Z,13.06
2023-05-04T17:34:43.624Z,12.93
2023-05-04T17:37:10.677Z,12.78
2023-05-04T17:39:37.662Z,12.49
2023-05-04T17:42:05.816Z,12.43
2023-05-04T17:44:33.092Z,12.25
2023-05-04T17:47:00.572Z,12.07
2023-05-04T17:49:27.604Z,11.96
2023-05-04T17:51:54.478Z,11.87
2023-05-04T17:54:21.402Z,11.89
2023-05-04T17:56:48.732Z,11.92
2023-05-04T17:59:19.014Z,11.78
2023-05-04T18:01:46.223Z,11.51
2023-05-04T18:04:13.273Z,11.45
2023-05-04T18:06:40.174Z,11.31
2023-05-04T18:09:07.237Z,11.02
2023-05-04T18:11:34.254Z,11.04
2023-05-04T18:14:01.447Z,10.95
2023-05-04T18:16:29.721Z,10.87
2023-05-04T18:18:58.309Z,10.82
2023-05-04T18:21:26.356Z,10.67
2023-05-04T18:23:55.843Z,10.68
2023-05-04T18:26:22.999Z,10.61
2023-05-04T18:28:50.337Z,10.53
2023-05-04T18:31:17.811Z,10.44
2023-05-04T18:33:45.346Z,10.36
2023-05-04T18:36:15.220Z,10.43
2023-05-04T18:38:48.500Z,10.31
2023-05-04T18:41:15.501Z,10.25
2023-05-04T18:43:42.637Z,10.23
2023-05-04T18:46:09.596Z,10.17
2023-05-04T18:48:38.909Z,10.08
2023-05-04T18:51:06.237Z,10.09
2023-05-04T18:53:33.259Z,10.02
2023-05-04T18:56:01.368Z,9.97
2023-05-04T18:58:28.362Z,9.96
2023-05-04T19:00:55.520Z,9.87
2023-05-04T19:03:22.560Z,9.82
2023-05-04T19:05:50.395Z,9.73
2023-05-04T19:08:17.492Z,9.67
2023-05-04T19:10:44.431Z,9.65
2023-05-04T19:13:11.493Z,9.60
2023-05-04T19:15:38.529Z,9.70
2023-05-04T19:18:05.531Z,9.60
2023-05-04T19:20:32.751Z,9.56
2023-05-04T19:22:59.594Z,9.54
2023-05-04T19:25:34.245Z,9.52
2023-05-04T19:28:08.151Z,9.45
2023-05-04T19:30:38.815Z,9.32
2023-05-04T19:33:09.444Z,9.30
2023-05-04T19:35:36.920Z,9.25
2023-05-04T19:38:06.773Z,9.06
2023-05-04T19:40:34.867Z,9.16
2023-05-04T19:43:02.191Z,9.02
2023-05-04T19:45:29.267Z,9.13
2023-05-04T19:47:56.673Z,9.07
2023-05-04T19:50:23.748Z,8.89
2023-05-04T19:52:50.733Z,9.01
2023-05-04T19:55:17.714Z,8.97
2023-05-04T19:57:44.798Z,8.90
2023-05-04T20:00:12.983Z,8.84
2023-05-04T20:02:40.199Z,8.88
2023-05-04T20:05:07.833Z,8.81
2023-05-04T20:07:37.168Z,8.80
2023-05-04T20:10:04.798Z,8.86
2023-05-04T20:12:32.594Z,8.76
2023-05-04T20:14:59.810Z,8.80
2023-05-04T20:17:27.760Z,8.84
2023-05-04T20:19:54.945Z,8.86
2023-05-04T20:22:22.436Z,8.67
2023-05-04T20:24:49.792Z,8.84
2023-05-04T20:27:17.026Z,8.73
2023-05-04T20:29:44.227Z,8.68
2023-05-04T20:32:11.561Z,8.78
2023-05-04T20:34:39.924Z,8.79
2023-05-04T20:37:07.067Z,8.69
2023-05-04T20:39:34.368Z,8.66
2023-05-04T20:42:01.533Z,8.66
2023-05-04T20:44:28.418Z,8.49
2023-05-04T20:46:55.464Z,8.54
2023-05-04T20:49:22.546Z,8.56
2023-05-04T20:51:49.437Z,8.51
2023-05-04T20:54:16.567Z,8.56
2023-05-04T20:56:43.474Z,8.55
2023-05-04T20:59:10.415Z,8.54
2023-05-04T21:01:37.452Z,8.57
2023-05-04T21:04:04.636Z,8.52
2023-05-04T21:06:31.932Z,8.49
2023-05-04T21:08:58.806Z,8.50
2023-05-04T21:11:25.927Z,8.49
2023-05-04T21:13:53.100Z,8.44
2023-05-04T21:16:20.214Z,8.42
2023-05-04T21:18:47.173Z,8.46
2023-05-04T21:21:13.916Z,8.38
2023-05-04T21:23:41.043Z,8.36
2023-05-04T21:26:11.740Z,8.29
2023-05-04T21:28:40.227Z,8.34
2023-05-04T21:31:08.736Z,8.33
2023-05-04T21:33:37.752Z,8.28
2023-05-04T21:36:15.005Z,8.33
2023-05-04T21:38:43.047Z,8.31
2023-05-04T21:41:14.018Z,8.36
2023-05-04T21:43:41.468Z,8.32
2023-05-04T21:46:08.826Z,8.42
2023-05-04T21:48:36.491Z,8.48
2023-05-04T21:51:03.666Z,8.56
2023-05-04T21:53:33.638Z,8.64
2023-05-04T21:56:01.517Z,8.61
2023-05-04T21:58:30.959Z,8.59
2023-05-04T22:00:58.251Z,8.70
2023-05-04T22:03:25.086Z,8.71
2023-05-04T22:05:54.529Z,8.71
2023-05-04T22:08:22.582Z,8.84
2023-05-04T22:10:50.722Z,8.80
2023-05-04T22:13:18.157Z,8.82
2023-05-04T22:15:49.899Z,8.80
2023-05-04T22:18:17.647Z,8.81
2023-05-04T22:20:44.883Z,8.87
2023-05-04T22:23:12.208Z,8.86
2023-05-04T22:25:39.640Z,8.93
2023-05-04T22:28:06.838Z,8.95
2023-05-04T22:30:33.985Z,8.88
2023-05-04T22:33:01.131Z,8.96
2023-05-04T22:35:28.381Z,8.97
2023-05-04T22:37:55.348Z,8.95
2023-05-04T22:40:22.816Z,9.01
2023-05-04T22:42:49.958Z,8.95
2023-05-04T22:45:18.545Z,8.99
2023-05-04T22:47:47.037Z,8.82
2023-05-04T22:50:14.361Z,8.93
2023-05-04T22:52:44.156Z,8.97
2023-05-04T22:55:11.229Z,8.94
2023-05-04T22:57:38.263Z,8.76
2023-05-04T23:00:07.877Z,9.01
2023-05-04T23:02:35.806Z,8.99
2023-05-04T23:05:02.950Z,9.01
2023-05-04T23:07:29.892Z,8.99
2023-05-04T23:09:57.500Z,9.00
2023-05-04T23:12:25.818Z,8.97
2023-05-04T23:14:53.364Z,9.01
2023-05-04T23:17:20.453Z,8.97
2023-05-04T23:19:48.086Z,8.92
2023-05-04T23:22:15.133Z,8.88
2023-05-04T23:24:42.532Z,8.90
2023-05-04T23:27:10.180Z,8.91
2023-05-04T23:29:37.350Z,9.02
2023-05-04T23:32:04.599Z,8.91
2023-05-04T23:34:32.183Z,8.92
2023-05-04T23:36:59.062Z,8.88
2023-05-04T23:39:25.927Z,8.81
2023-05-04T23:41:52.986Z,8.85
2023-05-04T23:44:21.538Z,8.78
2023-05-04T23:46:51.360Z,8.78
2023-05-04T23:49:18.298Z,8.78
2023-05-04T23:51:45.307Z,8.84
2023-05-04T23:54:12.413Z,8.66
2023-05-04T23:56:39.481Z,8.59
2023-05-04T23:59:06.539Z,8.53
